createdAt,value
2023-04-04T00:00:59.366Z,1.80
2023-04-04T00:03:47.191Z,2.10
2023-04-04T00:06:34.737Z,1.80
2023-04-04T00:09:22.197Z,1.93
2023-04-04T00:12:09.581Z,2.10
2023-04-04T00:14:58.350Z,2.73
2023-04-04T00:17:45.819Z,2.10
2023-04-04T00:20:33.290Z,1.93
2023-04-04T00:23:20.724Z,2.13
2023-04-04T00:26:08.087Z,2.10
2023-04-04T00:28:56.141Z,2.33
2023-04-04T00:31:43.858Z,2.17
2023-04-04T00:34:31.563Z,2.17
2023-04-04T00:37:18.896Z,2.13
2023-04-04T00:40:06.651Z,1.83
2023-04-04T00:42:54.150Z,2.00
2023-04-04T00:45:41.884Z,2.27
2023-04-04T00:48:29.286Z,2.07
2023-04-04T00:51:16.655Z,2.30
2023-04-04T00:54:04.358Z,1.93
2023-04-04T00:56:55.292Z,2.30
2023-04-04T00:59:43.233Z,2.30
2023-04-04T01:02:30.628Z,2.20
2023-04-04T01:05:18.194Z,1.90
2023-04-04T01:08:05.676Z,2.00
2023-04-04T01:10:53.065Z,2.10
2023-04-04T01:13:40.443Z,1.80
2023-04-04T01:16:27.802Z,2.00
2023-04-04T01:19:18.383Z,1.80
2023-04-04T01:22:06.421Z,2.07
2023-04-04T01:24:55.975Z,2.23
2023-04-04T01:27:43.402Z,2.00
2023-04-04T01:30:32.947Z,2.53
2023-04-04T01:33:23.379Z,2.10
2023-04-04T01:36:26.543Z,2.37
2023-04-04T01:39:37.506Z,3.07
2023-04-04T01:42:25.213Z,2.87
2023-04-04T01:45:12.909Z,5.37
2023-04-04T01:48:00.310Z,7.27
2023-04-04T01:50:47.737Z,4.13
2023-04-04T01:53:35.118Z,2.80
2023-04-04T01:56:22.900Z,2.70
2023-04-04T01:59:10.314Z,2.43
2023-04-04T02:01:58.116Z,2.50
2023-04-04T02:04:45.505Z,2.43
2023-04-04T02:07:32.903Z,2.53
2023-04-04T02:10:20.575Z,2.50
2023-04-04T02:13:08.112Z,2.77
2023-04-04T02:15:55.473Z,2.83
2023-04-04T02:18:43.030Z,3.00
2023-04-04T02:21:30.667Z,2.53
2023-04-04T02:24:18.107Z,2.30
2023-04-04T02:27:06.250Z,2.90
2023-04-04T02:29:55.135Z,2.37
2023-04-04T02:32:43.053Z,2.90
2023-04-04T02:35:30.828Z,2.17
2023-04-04T02:38:18.262Z,2.53
2023-04-04T02:41:05.773Z,2.60
2023-04-04T02:43:53.203Z,2.60
2023-04-04T02:46:41.926Z,2.40
2023-04-04T02:49:29.673Z,3.13
2023-04-04T02:52:17.065Z,2.73
2023-04-04T02:55:04.930Z,2.33
2023-04-04T02:57:52.572Z,2.90
2023-04-04T03:00:40.275Z,2.50
2023-04-04T03:03:28.013Z,2.23
2023-04-04T03:06:15.605Z,2.10
2023-04-04T03:09:04.855Z,2.40
2023-04-04T03:11:52.266Z,2.57
2023-04-04T03:14:40.648Z,2.77
2023-04-04T03:17:28.138Z,2.20
2023-04-04T03:20:16.172Z,2.30
2023-04-04T03:23:03.545Z,2.63
2023-04-04T03:25:51.098Z,2.23
2023-04-04T03:28:38.571Z,2.50
2023-04-04T03:31:25.929Z,2.60
2023-04-04T03:34:13.396Z,2.60
2023-04-04T03:37:00.825Z,2.53
2023-04-04T03:39:48.306Z,2.73
2023-04-04T03:42:35.814Z,2.37
2023-04-04T03:45:23.237Z,2.50
2023-04-04T03:48:11.265Z,2.57
2023-04-04T03:50:58.785Z,2.50
2023-04-04T03:53:46.440Z,2.73
2023-04-04T03:56:33.914Z,2.37
2023-04-04T03:59:21.833Z,2.70
2023-04-04T04:02:09.281Z,2.47
2023-04-04T04:04:56.635Z,2.50
2023-04-04T04:07:45.366Z,2.83
2023-04-04T04:10:33.409Z,3.10
2023-04-04T04:13:21.525Z,2.90
2023-04-04T04:16:09.097Z,2.77
2023-04-04T04:18:56.543Z,3.90
2023-04-04T04:21:43.980Z,2.50
2023-04-04T04:24:31.364Z,2.43
2023-04-04T04:27:18.771Z,2.80
2023-04-04T04:30:06.549Z,2.70
2023-04-04T04:32:54.053Z,2.70
2023-04-04T04:35:41.549Z,2.77
2023-04-04T04:38:29.032Z,2.77
2023-04-04T04:41:16.717Z,2.80
2023-04-04T04:44:04.110Z,2.50
2023-04-04T04:46:51.787Z,2.87
2023-04-04T04:49:39.331Z,3.07
2023-04-04T04:52:27.093Z,2.60
2023-04-04T04:55:14.440Z,2.90
2023-04-04T04:58:02.247Z,2.77
2023-04-04T05:00:49.651Z,3.00
2023-04-04T05:03:37.018Z,2.97
2023-04-04T05:06:24.434Z,3.20
2023-04-04T05:09:11.774Z,2.93
2023-04-04T05:11:59.135Z,3.10
2023-04-04T05:14:46.487Z,2.90
2023-04-04T05:17:36.077Z,3.80
2023-04-04T05:20:23.509Z,3.20
2023-04-04T05:23:10.915Z,2.53
2023-04-04T05:25:58.255Z,3.00
2023-04-04T05:28:45.587Z,3.00
2023-04-04T05:31:33.330Z,3.10
2023-04-04T05:34:20.791Z,3.20
2023-04-04T05:37:08.835Z,3.60
2023-04-04T05:39:56.593Z,4.50
2023-04-04T05:42:44.587Z,4.10
2023-04-04T05:45:32.139Z,3.43
2023-04-04T05:48:19.539Z,3.20
2023-04-04T05:51:06.917Z,3.10
2023-04-04T05:53:54.369Z,3.10
2023-04-04T05:56:41.768Z,3.13
2023-04-04T05:59:30.742Z,2.87
2023-04-04T06:02:18.532Z,3.37
2023-04-04T06:05:06.404Z,3.10
2023-04-04T06:07:53.763Z,3.80
2023-04-04T06:10:41.568Z,3.30
2023-04-04T06:13:29.097Z,3.77
2023-04-04T06:16:16.606Z,4.07
2023-04-04T06:19:05.918Z,4.63
2023-04-04T06:21:53.308Z,4.70
2023-04-04T06:24:40.920Z,4.27
2023-04-04T06:27:28.376Z,3.93
2023-04-04T06:30:17.072Z,4.60
2023-04-04T06:33:05.031Z,4.30
2023-04-04T06:35:52.521Z,3.90
2023-04-04T06:38:40.012Z,3.17
2023-04-04T06:41:27.560Z,3.30
2023-04-04T06:44:15.718Z,3.00
2023-04-04T06:47:03.289Z,3.00
2023-04-04T06:49:50.744Z,2.67
2023-04-04T06:52:39.899Z,4.13
2023-04-04T06:55:28.170Z,2.90
2023-04-04T06:58:15.701Z,2.77
2023-04-04T07:01:03.385Z,2.93
2023-04-04T07:03:54.056Z,2.87
2023-04-04T07:06:42.206Z,2.50
2023-04-04T07:09:29.961Z,2.90
2023-04-04T07:12:17.518Z,2.70
2023-04-04T07:15:05.062Z,3.43
2023-04-04T07:17:52.650Z,2.77
2023-04-04T07:20:40.361Z,2.40
2023-04-04T07:23:27.889Z,2.10
2023-04-04T07:26:15.481Z,2.80
2023-04-04T07:29:03.174Z,2.07
2023-04-04T07:31:51.132Z,2.17
2023-04-04T07:34:38.922Z,2.00
2023-04-04T07:37:29.048Z,2.00
2023-04-04T07:40:16.581Z,2.40
2023-04-04T07:43:03.918Z,1.60
2023-04-04T07:45:51.916Z,2.05
2023-04-04T07:48:39.372Z,2.03
2023-04-04T07:51:30.885Z,2.13
2023-04-04T07:54:18.257Z,1.80
2023-04-04T07:57:06.020Z,2.00
2023-04-04T07:59:53.488Z,2.00
2023-04-04T08:02:41.190Z,1.92
2023-04-04T08:05:28.887Z,2.00
2023-04-04T08:08:16.431Z,1.98
2023-04-04T08:11:03.802Z,1.80
2023-04-04T08:13:51.766Z,1.80
2023-04-04T08:16:39.655Z,1.90
2023-04-04T08:19:27.342Z,1.45
2023-04-04T08:22:14.672Z,1.50
2023-04-04T08:25:02.051Z,1.90
2023-04-04T08:27:49.424Z,1.80
2023-04-04T08:30:36.810Z,2.03
2023-04-04T08:33:29.054Z,2.00
2023-04-04T08:36:22.633Z,2.30
2023-04-04T08:39:10.085Z,1.80
2023-04-04T08:42:07.792Z,2.13
2023-04-04T08:44:55.364Z,2.00
2023-04-04T08:47:42.984Z,1.50
2023-04-04T08:50:31.109Z,1.97
2023-04-04T08:53:18.592Z,1.60
2023-04-04T08:56:06.303Z,1.70
2023-04-04T08:58:53.829Z,1.40
2023-04-04T09:01:41.497Z,1.50
2023-04-04T09:04:29.702Z,1.60
2023-04-04T09:07:17.362Z,1.70
2023-04-04T09:10:04.940Z,1.37
2023-04-04T09:12:53.739Z,2.00
2023-04-04T09:15:45.437Z,1.23
2023-04-04T09:18:32.801Z,1.50
2023-04-04T09:21:20.495Z,1.50
2023-04-04T09:24:08.075Z,1.37
2023-04-04T09:26:57.156Z,1.70
2023-04-04T09:29:44.555Z,1.30
2023-04-04T09:32:32.183Z,1.60
2023-04-04T09:35:20.755Z,2.10
2023-04-04T09:38:08.950Z,2.00
2023-04-04T09:40:57.137Z,1.60
2023-04-04T09:43:45.664Z,2.00
2023-04-04T09:46:33.082Z,1.67
2023-04-04T09:49:24.023Z,1.50
2023-04-04T09:52:19.296Z,1.50
2023-04-04T09:55:06.913Z,1.50
2023-04-04T09:57:54.355Z,1.83
2023-04-04T10:00:44.711Z,1.33
2023-04-04T10:03:32.245Z,1.83
2023-04-04T10:06:20.438Z,1.37
2023-04-04T10:09:08.795Z,1.67
2023-04-04T10:12:09.698Z,1.40
2023-04-04T10:15:00.899Z,1.40
2023-04-04T10:17:49.054Z,1.50
2023-04-04T10:20:36.865Z,1.60
2023-04-04T10:23:26.471Z,1.40
2023-04-04T10:26:14.515Z,1.90
2023-04-04T10:29:03.827Z,1.40
2023-04-04T10:31:59.514Z,1.87
2023-04-04T10:34:50.503Z,1.47
2023-04-04T10:37:53.324Z,1.60
2023-04-04T10:40:43.003Z,1.80
2023-04-04T10:43:33.091Z,1.60
2023-04-04T10:46:22.982Z,1.73
2023-04-04T10:49:10.913Z,1.20
2023-04-04T10:51:58.455Z,1.90
2023-04-04T10:54:46.440Z,1.77
2023-04-04T10:57:34.883Z,1.60
2023-04-04T11:00:24.151Z,1.47
2023-04-04T11:03:11.612Z,1.80
2023-04-04T11:06:01.813Z,1.60
2023-04-04T11:08:56.062Z,1.80
2023-04-04T11:12:02.191Z,1.80
2023-04-04T11:15:08.016Z,1.50
2023-04-04T11:17:59.780Z,1.80
2023-04-04T11:20:48.748Z,1.60
2023-04-04T11:23:59.702Z,1.80
2023-04-04T11:26:47.420Z,1.53
2023-04-04T11:29:51.344Z,1.90
2023-04-04T11:32:59.825Z,1.80
2023-04-04T11:35:54.277Z,1.80
2023-04-04T11:38:50.257Z,1.60
2023-04-04T11:41:53.093Z,1.60
2023-04-04T11:44:41.527Z,1.60
2023-04-04T11:47:30.876Z,1.60
2023-04-04T11:50:19.338Z,1.57
2023-04-04T11:53:08.268Z,1.90
2023-04-04T11:55:56.526Z,1.80
2023-04-04T11:58:47.748Z,1.67
2023-04-04T12:01:35.672Z,1.60
2023-04-04T12:04:23.354Z,1.63
2023-04-04T12:07:10.868Z,1.60
2023-04-04T12:09:58.668Z,1.80
2023-04-04T12:12:46.580Z,1.60
2023-04-04T12:15:37.708Z,1.67
2023-04-04T12:18:26.286Z,2.00
2023-04-04T12:21:13.748Z,1.90
2023-04-04T12:24:01.172Z,2.10
2023-04-04T12:26:49.973Z,1.73
2023-04-04T12:29:37.987Z,1.90
2023-04-04T12:32:25.672Z,1.80
2023-04-04T12:35:13.736Z,1.63
2023-04-04T12:38:02.446Z,1.67
2023-04-04T12:40:51.846Z,2.20
2023-04-04T12:43:42.773Z,1.80
2023-04-04T12:46:39.890Z,1.80
2023-04-04T12:49:31.280Z,1.50
2023-04-04T12:52:22.591Z,1.57
2023-04-04T12:55:10.906Z,1.50
2023-04-04T12:58:02.604Z,1.97
2023-04-04T13:00:54.087Z,1.80
2023-04-04T13:03:42.506Z,1.30
2023-04-04T13:06:31.150Z,1.80
2023-04-04T13:09:20.185Z,1.70
2023-04-04T13:12:12.064Z,1.90
2023-04-04T13:15:11.681Z,1.70
2023-04-04T13:18:14.282Z,1.77
2023-04-04T13:21:01.885Z,1.50
2023-04-04T13:23:49.884Z,1.90
2023-04-04T13:26:37.407Z,1.87
2023-04-04T13:29:25.558Z,1.50
2023-04-04T13:32:12.930Z,1.80
2023-04-04T13:35:00.325Z,1.70
2023-04-04T13:37:48.146Z,1.97
2023-04-04T13:40:35.863Z,1.70
2023-04-04T13:43:23.479Z,1.80
2023-04-04T13:46:11.216Z,1.50
2023-04-04T13:48:58.641Z,1.50
2023-04-04T13:51:45.991Z,1.60
2023-04-04T13:54:33.504Z,1.60
2023-04-04T13:57:20.920Z,1.73
2023-04-04T14:00:09.139Z,1.57
2023-04-04T14:02:58.159Z,1.70
2023-04-04T14:05:45.749Z,1.80
2023-04-04T14:08:34.569Z,1.70
2023-04-04T14:11:22.403Z,1.80
2023-04-04T14:14:09.763Z,1.80
2023-04-04T14:16:57.131Z,1.60
2023-04-04T14:19:44.547Z,1.63
2023-04-04T14:22:33.522Z,1.57
2023-04-04T14:25:21.001Z,1.67
2023-04-04T14:28:08.416Z,1.70
2023-04-04T14:30:56.300Z,1.73
2023-04-04T14:33:43.697Z,1.70
2023-04-04T14:36:31.565Z,1.90
2023-04-04T14:39:19.477Z,1.60
2023-04-04T14:42:06.983Z,1.63
2023-04-04T14:44:54.418Z,1.60
2023-04-04T14:47:41.944Z,1.50
2023-04-04T14:50:29.415Z,1.80
2023-04-04T14:53:17.264Z,2.13
2023-04-04T14:56:04.808Z,1.90
2023-04-04T14:58:52.241Z,2.00
2023-04-04T15:01:40.021Z,2.10
2023-04-04T15:04:27.604Z,1.97
2023-04-04T15:07:15.132Z,2.13
2023-04-04T15:10:02.696Z,2.30
2023-04-04T15:12:50.283Z,1.77
2023-04-04T15:15:37.696Z,2.03
2023-04-04T15:18:25.601Z,1.73
2023-04-04T15:21:12.968Z,2.17
2023-04-04T15:24:00.395Z,1.97
2023-04-04T15:26:47.789Z,1.90
2023-04-04T15:29:35.796Z,1.40
2023-04-04T15:32:23.191Z,2.10
2023-04-04T15:35:16.339Z,1.60
2023-04-04T15:38:03.679Z,1.90
2023-04-04T15:40:51.209Z,2.23
2023-04-04T15:43:38.860Z,1.87
2023-04-04T15:46:28.282Z,1.77
2023-04-04T15:49:16.022Z,1.80
2023-04-04T15:52:04.332Z,2.10
2023-04-04T15:54:52.058Z,2.10
2023-04-04T15:57:39.599Z,2.57
2023-04-04T16:00:30.084Z,1.70
2023-04-04T16:03:17.719Z,1.67
2023-04-04T16:06:07.610Z,1.90
2023-04-04T16:08:55.186Z,2.13
2023-04-04T16:11:42.568Z,1.90
2023-04-04T16:14:29.933Z,1.87
2023-04-04T16:17:17.297Z,1.47
2023-04-04T16:20:06.014Z,1.90
2023-04-04T16:22:54.784Z,1.60
2023-04-04T16:25:43.317Z,1.60
2023-04-04T16:28:30.892Z,1.60
2023-04-04T16:31:18.300Z,1.57
2023-04-04T16:34:06.573Z,2.03
2023-04-04T16:36:53.953Z,1.90
2023-04-04T16:39:41.394Z,1.80
2023-04-04T16:42:28.822Z,1.73
2023-04-04T16:45:16.372Z,1.57
2023-04-04T16:48:03.948Z,1.80
2023-04-04T16:50:51.340Z,2.00
2023-04-04T16:53:39.008Z,2.10
2023-04-04T16:56:26.394Z,1.77
2023-04-04T16:59:15.458Z,2.10
2023-04-04T17:02:10.941Z,1.90
2023-04-04T17:04:58.366Z,2.00
2023-04-04T17:07:45.781Z,2.43
2023-04-04T17:10:33.249Z,1.77
2023-04-04T17:13:20.954Z,1.90
2023-04-04T17:16:08.584Z,1.83
2023-04-04T17:18:56.085Z,1.70
2023-04-04T17:21:43.532Z,1.50
2023-04-04T17:24:30.953Z,1.90
2023-04-04T17:27:18.470Z,3.80
2023-04-04T17:30:06.527Z,3.90
2023-04-04T17:32:55.050Z,5.33
2023-04-04T17:35:43.152Z,2.17
2023-04-04T17:38:30.827Z,1.90
2023-04-04T17:41:18.457Z,2.00
2023-04-04T17:44:05.818Z,1.83
2023-04-04T17:46:55.156Z,2.40
2023-04-04T17:49:42.498Z,1.97
2023-04-04T17:52:30.180Z,2.57
2023-04-04T17:55:19.846Z,2.70
2023-04-04T17:58:10.799Z,2.90
2023-04-04T18:00:59.046Z,3.37
2023-04-04T18:03:47.292Z,3.03
2023-04-04T18:06:35.857Z,2.53
2023-04-04T18:09:24.400Z,3.10
2023-04-04T18:12:12.740Z,3.53
2023-04-04T18:15:00.781Z,3.27
2023-04-04T18:17:48.421Z,5.33
2023-04-04T18:20:36.964Z,2.60
2023-04-04T18:23:27.743Z,3.40
2023-04-04T18:26:18.172Z,2.30
2023-04-04T18:29:05.994Z,2.17
2023-04-04T18:31:54.117Z,2.13
2023-04-04T18:34:42.165Z,1.80
2023-04-04T18:37:29.975Z,1.90
2023-04-04T18:40:18.073Z,1.50
2023-04-04T18:43:07.316Z,1.80
2023-04-04T18:45:55.476Z,1.70
2023-04-04T18:48:46.746Z,1.53
2023-04-04T18:51:34.726Z,1.70
2023-04-04T18:54:22.989Z,1.90
2023-04-04T18:57:16.223Z,1.70
2023-04-04T19:00:06.917Z,1.70
2023-04-04T19:02:58.002Z,1.90
2023-04-04T19:05:49.147Z,2.07
2023-04-04T19:08:40.054Z,3.10
2023-04-04T19:11:27.602Z,2.80
2023-04-04T19:14:15.016Z,3.00
2023-04-04T19:17:02.869Z,2.83
2023-04-04T19:19:50.539Z,2.80
2023-04-04T19:22:38.001Z,2.07
2023-04-04T19:25:25.631Z,2.30
2023-04-04T19:28:13.011Z,2.00
2023-04-04T19:31:01.868Z,1.80
2023-04-04T19:33:50.830Z,1.93
2023-04-04T19:36:38.335Z,2.30
2023-04-04T19:39:28.020Z,1.70
2023-04-04T19:42:15.588Z,2.00
2023-04-04T19:45:10.288Z,2.03
2023-04-04T19:48:09.046Z,2.20
2023-04-04T19:50:56.634Z,2.17
2023-04-04T19:53:45.031Z,1.80
2023-04-04T19:56:32.366Z,1.83
2023-04-04T19:59:49.746Z,1.90
2023-04-04T20:02:49.420Z,1.80
2023-04-04T20:05:36.767Z,1.90
2023-04-04T20:08:24.322Z,2.10
2023-04-04T20:11:12.938Z,1.90
2023-04-04T20:14:06.115Z,1.60
2023-04-04T20:16:53.727Z,2.43
2023-04-04T20:19:41.437Z,2.87
2023-04-04T20:22:29.007Z,1.90
2023-04-04T20:25:36.738Z,1.97
2023-04-04T20:28:27.856Z,2.10
2023-04-04T20:31:17.820Z,2.07
2023-04-04T20:34:07.296Z,1.77
2023-04-04T20:36:54.783Z,1.90
2023-04-04T20:39:45.834Z,2.00
2023-04-04T20:42:39.796Z,1.73
2023-04-04T20:45:27.907Z,2.10
2023-04-04T20:48:34.497Z,2.13
2023-04-04T20:51:24.518Z,2.07
2023-04-04T20:54:12.096Z,2.40
2023-04-04T20:56:59.462Z,2.30
2023-04-04T20:59:48.871Z,2.03
2023-04-04T21:02:36.517Z,2.10
2023-04-04T21:05:30.902Z,1.80
2023-04-04T21:08:21.182Z,2.00
2023-04-04T21:11:08.619Z,1.97
2023-04-04T21:13:56.552Z,1.90
2023-04-04T21:16:43.938Z,1.73
2023-04-04T21:19:31.356Z,2.03
2023-04-04T21:22:19.149Z,1.97
2023-04-04T21:25:18.426Z,2.00
2023-04-04T21:28:06.569Z,2.20
2023-04-04T21:30:53.935Z,2.10
2023-04-04T21:33:45.327Z,1.90
2023-04-04T21:36:33.792Z,1.80
2023-04-04T21:39:30.954Z,1.90
2023-04-04T21:42:19.412Z,1.90
2023-04-04T21:45:07.084Z,1.90
2023-04-04T21:47:54.604Z,2.13
2023-04-04T21:50:42.160Z,1.73
2023-04-04T21:53:29.751Z,1.80
2023-04-04T21:56:17.608Z,1.90
2023-04-04T21:59:06.418Z,1.30
2023-04-04T22:01:53.818Z,1.70
2023-04-04T22:04:41.343Z,1.50
2023-04-04T22:07:28.776Z,1.50
2023-04-04T22:10:18.652Z,1.43
2023-04-04T22:13:06.093Z,1.70
2023-04-04T22:15:53.497Z,1.67
2023-04-04T22:18:42.754Z,1.60
2023-04-04T22:21:30.680Z,1.57
2023-04-04T22:24:18.696Z,1.60
2023-04-04T22:27:07.230Z,1.87
2023-04-04T22:29:54.644Z,1.77
2023-04-04T22:32:43.886Z,1.77
2023-04-04T22:35:34.273Z,1.47
2023-04-04T22:38:21.747Z,1.60
2023-04-04T22:41:09.174Z,1.70
2023-04-04T22:43:57.124Z,1.50
2023-04-04T22:46:44.505Z,2.10
2023-04-04T22:49:32.641Z,1.63
2023-04-04T22:52:22.545Z,1.63
2023-04-04T22:55:11.032Z,1.70
2023-04-04T22:57:58.412Z,2.00
2023-04-04T23:00:46.364Z,2.37
2023-04-04T23:03:33.897Z,2.27
2023-04-04T23:06:21.941Z,2.10
2023-04-04T23:09:09.422Z,2.20
2023-04-04T23:11:57.497Z,2.30
2023-04-04T23:14:44.933Z,2.07
2023-04-04T23:17:33.080Z,2.00
2023-04-04T23:20:20.595Z,2.00
2023-04-04T23:23:07.932Z,2.13
2023-04-04T23:25:55.292Z,2.00
2023-04-04T23:28:42.641Z,1.90
2023-04-04T23:31:30.076Z,2.20
2023-04-04T23:34:17.493Z,2.00
2023-04-04T23:37:05.210Z,2.13
2023-04-04T23:39:52.695Z,1.93
2023-04-04T23:42:40.697Z,1.57
2023-04-04T23:45:28.193Z,2.87
2023-04-04T23:48:15.631Z,1.90
2023-04-04T23:51:03.705Z,2.10
2023-04-04T23:53:51.052Z,2.20
2023-04-04T23:56:38.614Z,1.90
2023-04-04T23:59:26.877Z,1.80
